Time;durP1;ratioP1;P1;durP2;ratioP2;P2;SDS_P1;SDS_P2;PMS_P1;PMS_P2;Temp;Humidity;BMP_temperature;BMP_pressure;BME280_temperature;BME280_humidity;BME280_pressure;Samples;Min_cycle;Max_cycle;Signal;HPM_P1;HPM_P2
2023/09/11 00:01:10;;;;;;;19.80;8.40;;;;;;;18.31;77.67;100605.19;108856;279;38358;-72
2023/09/11 00:03:52;;;;;;;13.90;8.80;;;;;;;18.32;77.76;100601.27;108893;279;38799;-72
2023/09/11 00:06:32;;;;;;;14.10;8.80;;;;;;;18.32;77.79;100599.52;108861;279;38445;-72
2023/09/11 00:09:11;;;;;;;14.00;9.20;;;;;;;18.30;78.02;100597.83;108875;279;38503;-74
2023/09/11 00:11:45;;;;;;;15.10;10.00;;;;;;;18.32;78.14;100597.22;108926;279;38737;-72
2023/09/11 00:14:19;;;;;;;14.20;8.90;;;;;;;18.29;78.19;100595.95;108749;279;174909;-72
2023/09/11 00:16:53;;;;;;;13.60;9.10;;;;;;;18.27;78.08;100594.55;108911;278;38495;-72
2023/09/11 00:19:30;;;;;;;15.20;8.30;;;;;;;18.22;78.22;100591.48;108956;278;39993;-71
2023/09/11 00:22:04;;;;;;;12.50;8.40;;;;;;;18.19;78.21;100592.25;108856;278;188117;-74
2023/09/11 00:24:37;;;;;;;14.70;9.10;;;;;;;18.16;78.29;100581.83;108934;278;38483;-72
2023/09/11 00:27:11;;;;;;;13.40;8.90;;;;;;;18.13;78.38;100581.34;108898;278;39060;-72
2023/09/11 00:29:59;;;;;;;12.50;9.00;;;;;;;18.09;78.57;100576.44;108913;278;38283;-74
2023/09/11 00:32:33;;;;;;;13.30;8.10;;;;;;;18.03;78.49;100574.18;108945;278;38186;-72
2023/09/11 00:35:10;;;;;;;14.10;9.00;;;;;;;18.00;78.76;100573.38;108880;278;39621;-72
2023/09/11 00:37:44;;;;;;;11.30;8.30;;;;;;;17.95;78.75;100573.31;108970;278;39377;-72
2023/09/11 00:40:18;;;;;;;10.40;8.60;;;;;;;17.92;78.86;100575.28;108873;278;38416;-72
2023/09/11 00:42:51;;;;;;;14.00;9.20;;;;;;;17.88;78.91;100571.52;108890;278;38779;-73
2023/09/11 00:45:37;;;;;;;12.80;8.70;;;;;;;17.82;78.79;100568.91;108903;278;40001;-71
2023/09/11 00:48:21;;;;;;;11.50;8.60;;;;;;;17.74;78.99;100567.44;108865;278;38765;-74
2023/09/11 00:50:55;;;;;;;12.30;8.00;;;;;;;17.68;79.07;100566.75;108873;278;37207;-74
2023/09/11 00:53:44;;;;;;;10.10;7.90;;;;;;;17.60;79.29;100563.05;108858;278;38863;-72
2023/09/11 00:56:40;;;;;;;12.30;8.60;;;;;;;17.55;79.48;100561.41;108967;278;38761;-72
2023/09/11 00:59:14;;;;;;;17.70;9.40;;;;;;;17.51;79.69;100561.85;108901;278;38338;-72
2023/09/11 01:01:48;;;;;;;13.20;8.60;;;;;;;17.48;80.09;100561.32;108951;278;38135;-73
2023/09/11 01:04:22;;;;;;;11.00;8.00;;;;;;;17.46;80.40;100563.95;108887;278;38385;-72
2023/09/11 01:06:57;;;;;;;16.30;9.20;;;;;;;17.44;80.62;100562.50;108899;278;39696;-72
2023/09/11 01:09:31;;;;;;;12.20;8.60;;;;;;;17.43;80.68;100559.92;108903;278;38167;-72
2023/09/11 01:12:05;;;;;;;15.80;9.00;;;;;;;17.42;80.64;100561.75;108928;278;39115;-74
2023/09/11 01:14:44;;;;;;;14.00;9.80;;;;;;;17.38;80.64;100559.55;108910;278;38272;-71
2023/09/11 01:17:25;;;;;;;15.40;9.10;;;;;;;17.33;80.56;100558.45;108895;278;38235;-71
2023/09/11 01:20:31;;;;;;;16.60;9.10;;;;;;;17.28;80.99;100557.52;108891;278;38470;-75
2023/09/11 01:23:44;;;;;;;15.10;8.60;;;;;;;17.27;81.33;100557.58;108758;278;174968;-74
2023/09/11 01:26:46;;;;;;;11.60;8.80;;;;;;;17.28;81.86;100552.55;108888;278;38365;-72
2023/09/11 01:29:22;;;;;;;14.60;9.60;;;;;;;17.31;82.04;100551.15;108693;278;38268;-72
2023/09/11 01:31:57;;;;;;;11.50;9.50;;;;;;;17.32;82.00;100547.58;108895;278;38833;-72
2023/09/11 01:34:31;;;;;;;12.90;8.50;;;;;;;17.31;81.78;100550.59;108908;278;38285;-74
2023/09/11 01:37:05;;;;;;;16.80;9.20;;;;;;;17.29;81.79;100551.40;108885;278;38231;-71
2023/09/11 01:39:40;;;;;;;13.90;8.80;;;;;;;17.28;81.98;100551.86;108908;278;38507;-72
2023/09/11 01:42:18;;;;;;;10.90;8.40;;;;;;;17.29;82.17;100549.17;108901;278;38226;-72
2023/09/11 01:45:04;;;;;;;16.00;9.00;;;;;;;17.30;82.15;100545.41;108901;278;39686;-73
2023/09/11 01:47:38;;;;;;;11.40;8.80;;;;;;;17.28;82.10;100542.02;108894;278;39088;-72
2023/09/11 01:50:24;;;;;;;12.60;8.40;;;;;;;17.23;82.10;100539.98;108875;278;38717;-71
2023/09/11 01:52:59;;;;;;;10.40;8.30;;;;;;;17.19;81.90;100533.43;108927;278;38179;-71
2023/09/11 01:55:33;;;;;;;10.90;8.10;;;;;;;17.14;81.98;100529.29;108939;278;38243;-71
2023/09/11 01:58:09;;;;;;;13.40;9.10;;;;;;;17.11;82.30;100529.66;108934;278;38331;-75
2023/09/11 02:00:44;;;;;;;11.20;8.00;;;;;;;17.10;82.27;100527.83;108904;278;39926;-72
2023/09/11 02:03:23;;;;;;;14.20;9.30;;;;;;;17.07;82.20;100527.96;108917;278;39340;-72
2023/09/11 02:06:02;;;;;;;13.00;8.70;;;;;;;17.03;82.28;100529.08;108937;278;38227;-71
2023/09/11 02:08:36;;;;;;;14.80;8.70;;;;;;;17.00;82.41;100532.14;108914;278;38136;-74
2023/09/11 02:11:10;;;;;;;14.20;8.70;;;;;;;16.95;82.34;100529.09;108917;278;38115;-75
2023/09/11 02:13:45;;;;;;;13.90;8.70;;;;;;;16.92;82.48;100527.67;108914;278;39577;-72
2023/09/11 02:16:19;;;;;;;16.10;9.10;;;;;;;16.89;82.72;100533.52;108897;278;38287;-72
2023/09/11 02:19:04;;;;;;;14.80;9.00;;;;;;;16.87;83.02;100533.63;108885;278;38957;-74
2023/09/11 02:21:39;;;;;;;16.50;8.70;;;;;;;16.82;82.81;100534.78;108839;278;40392;-75
2023/09/11 02:24:13;;;;;;;11.80;8.90;;;;;;;16.79;82.84;100532.03;108885;278;38662;-72
2023/09/11 02:26:48;;;;;;;11.00;8.40;;;;;;;16.72;82.92;100529.39;108881;278;38809;-72
2023/09/11 02:29:23;;;;;;;12.10;7.90;;;;;;;16.68;82.95;100527.55;108927;278;40018;-71
2023/09/11 02:31:56;;;;;;;13.80;8.50;;;;;;;16.63;82.91;100527.28;108890;278;38163;-71
2023/09/11 02:34:31;;;;;;;13.90;9.00;;;;;;;16.60;83.06;100529.08;108899;278;38152;-74
2023/09/11 02:37:05;;;;;;;10.20;8.10;;;;;;;16.52;83.18;100528.13;108939;278;38695;-73
2023/09/11 02:39:39;;;;;;;15.90;8.90;;;;;;;16.46;83.32;100526.20;108940;278;39312;-72
2023/09/11 02:42:15;;;;;;;11.70;8.20;;;;;;;16.41;83.49;100528.98;108889;278;38350;-72
2023/09/11 02:45:03;;;;;;;11.00;8.20;;;;;;;16.36;83.87;100527.86;108883;278;39236;-73
2023/09/11 02:47:37;;;;;;;10.50;8.50;;;;;;;16.34;84.18;100531.88;108932;278;39335;-72
2023/09/11 02:50:19;;;;;;;10.80;7.70;;;;;;;16.33;84.33;100531.04;108912;278;38339;-71
2023/09/11 02:53:09;;;;;;;13.90;8.50;;;;;;;16.32;84.52;100533.58;108908;278;38508;-72
2023/09/11 02:55:48;;;;;;;13.30;9.20;;;;;;;16.31;84.84;100534.15;108891;278;38299;-72
2023/09/11 02:58:22;;;;;;;15.90;9.90;;;;;;;16.32;84.84;100528.66;108891;278;38307;-74
2023/09/11 03:01:13;;;;;;;14.20;8.90;;;;;;;16.30;84.95;100527.21;108863;278;39200;-71
2023/09/11 03:03:53;;;;;;;13.80;9.00;;;;;;;16.26;84.87;100523.92;108829;278;38482;-74
2023/09/11 03:06:28;;;;;;;13.60;8.70;;;;;;;16.23;84.90;100525.83;108879;278;39338;-74
2023/09/11 03:09:03;;;;;;;12.40;8.20;;;;;;;16.22;85.04;100524.48;108895;278;38224;-72
2023/09/11 03:11:37;;;;;;;12.50;8.10;;;;;;;16.23;85.40;100523.55;108878;278;38390;-72
2023/09/11 03:14:13;;;;;;;15.60;9.40;;;;;;;16.22;85.59;100518.31;108856;278;39071;-72
2023/09/11 03:16:47;;;;;;;10.40;9.00;;;;;;;16.23;85.80;100517.89;108903;278;38206;-72
2023/09/11 03:19:21;;;;;;;16.60;9.00;;;;;;;16.22;85.77;100514.96;108882;278;38238;-72
2023/09/11 03:22:10;;;;;;;13.10;9.60;;;;;;;16.20;85.79;100509.30;108919;278;38473;-73
2023/09/11 03:24:45;;;;;;;19.30;9.10;;;;;;;16.16;85.69;100510.38;108910;278;39715;-72
2023/09/11 03:27:19;;;;;;;14.50;9.10;;;;;;;16.14;85.77;100511.73;108922;278;39548;-72
2023/09/11 03:29:57;;;;;;;16.90;9.10;;;;;;;16.11;85.82;100505.23;108914;278;39908;-71
2023/09/11 03:32:32;;;;;;;15.30;8.80;;;;;;;16.10;85.74;100508.86;108948;278;39926;-72
2023/09/11 03:35:07;;;;;;;13.50;10.70;;;;;;;16.07;85.77;100503.56;108891;278;38481;-73
2023/09/11 03:37:55;;;;;;;13.40;8.90;;;;;;;16.06;86.03;100504.13;108962;278;38689;-72
2023/09/11 03:40:30;;;;;;;11.40;9.20;;;;;;;16.06;86.07;100501.69;108904;278;39177;-72
2023/09/11 03:43:04;;;;;;;11.50;9.20;;;;;;;16.04;86.07;100504.81;108935;278;38165;-74
2023/09/11 03:45:38;;;;;;;13.50;9.30;;;;;;;16.05;86.50;100504.19;108918;278;38376;-72
2023/09/11 03:48:15;;;;;;;17.40;9.10;;;;;;;16.04;86.38;100502.16;108933;278;38357;-73
2023/09/11 03:50:52;;;;;;;13.70;9.50;;;;;;;16.02;86.38;100500.86;108896;278;38194;-71
2023/09/11 03:53:26;;;;;;;14.70;9.50;;;;;;;15.99;86.30;100500.81;108944;278;38214;-72
2023/09/11 03:56:00;;;;;;;13.60;9.90;;;;;;;15.98;86.67;100501.25;108939;278;38207;-74
2023/09/11 03:58:35;;;;;;;12.80;9.20;;;;;;;15.97;86.70;100498.67;108896;278;38179;-73
2023/09/11 04:01:34;;;;;;;14.80;9.70;;;;;;;15.95;86.77;100496.81;108903;278;38411;-74
2023/09/11 04:04:08;;;;;;;10.80;8.40;;;;;;;15.92;86.72;100496.46;108954;278;39436;-72
2023/09/11 04:06:45;;;;;;;14.80;9.00;;;;;;;15.91;86.80;100496.39;108819;278;175008;-74
2023/09/11 04:09:19;;;;;;;14.20;8.60;;;;;;;15.88;86.98;100494.60;108896;278;38300;-72
2023/09/11 04:11:54;;;;;;;12.50;9.50;;;;;;;15.86;87.15;100490.84;108906;278;38470;-71
2023/09/11 04:14:28;;;;;;;13.40;9.20;;;;;;;15.84;87.23;100492.02;108859;278;39337;-71
2023/09/11 04:17:02;;;;;;;14.60;9.10;;;;;;;15.83;87.19;100488.25;108932;278;38278;-73
2023/09/11 04:19:36;;;;;;;10.20;8.40;;;;;;;15.83;87.39;100486.30;108932;278;39098;-72
2023/09/11 04:22:11;;;;;;;11.80;9.50;;;;;;;15.84;87.72;100486.38;108882;278;38970;-72
2023/09/11 04:24:45;;;;;;;16.60;10.40;;;;;;;15.89;88.10;100488.56;108884;278;39323;-72
2023/09/11 04:27:28;;;;;;;13.80;10.30;;;;;;;15.92;87.97;100490.69;108931;278;38280;-72
2023/09/11 04:30:04;;;;;;;13.60;9.70;;;;;;;15.92;88.16;100490.70;108885;278;38444;-74
2023/09/11 04:32:38;;;;;;;13.30;9.60;;;;;;;15.92;88.30;100489.27;108880;278;39628;-71
2023/09/11 04:35:13;;;;;;;13.30;9.40;;;;;;;15.94;88.33;100488.09;108909;278;39310;-72
2023/09/11 04:37:49;;;;;;;14.60;9.70;;;;;;;15.96;88.48;100488.16;108878;278;39620;-74
2023/09/11 04:40:23;;;;;;;12.30;9.40;;;;;;;16.00;88.74;100485.46;108902;278;39926;-74
2023/09/11 04:42:57;;;;;;;14.80;9.50;;;;;;;16.05;88.85;100489.20;108899;278;38166;-73
2023/09/11 04:45:32;;;;;;;14.50;9.80;;;;;;;16.12;89.17;100485.48;108889;278;38236;-74
2023/09/11 04:48:10;;;;;;;13.10;10.10;;;;;;;16.15;88.99;100482.83;108948;278;38249;-72
2023/09/11 04:50:46;;;;;;;14.80;10.10;;;;;;;16.19;89.16;100480.09;108900;278;38143;-72
2023/09/11 04:53:25;;;;;;;15.10;10.30;;;;;;;16.23;89.11;100477.89;108909;278;38294;-72
2023/09/11 04:56:13;;;;;;;15.20;10.30;;;;;;;16.33;89.47;100478.58;108893;278;38294;-72
2023/09/11 04:58:47;;;;;;;16.10;9.90;;;;;;;16.40;89.49;100476.55;108907;278;38552;-72
2023/09/11 05:01:21;;;;;;;12.60;9.80;;;;;;;16.50;89.68;100474.73;108891;278;38793;-71
2023/09/11 05:03:55;;;;;;;14.40;10.60;;;;;;;16.61;89.90;100473.69;108905;278;39002;-74
2023/09/11 05:06:43;;;;;;;11.10;9.60;;;;;;;16.71;89.91;100473.29;108917;278;38498;-72
2023/09/11 05:09:17;;;;;;;14.00;10.20;;;;;;;16.80;89.82;100475.06;108963;278;39395;-74
2023/09/11 05:11:54;;;;;;;13.00;9.90;;;;;;;16.88;89.96;100474.88;108932;278;38221;-74
2023/09/11 05:14:37;;;;;;;15.40;10.20;;;;;;;16.98;89.86;100472.13;108878;278;38784;-74
2023/09/11 05:17:18;;;;;;;11.10;9.70;;;;;;;17.07;89.67;100473.36;108944;278;38416;-74
2023/09/11 05:20:01;;;;;;;16.90;11.00;;;;;;;17.23;90.04;100470.38;108894;278;39017;-72
2023/09/11 05:22:35;;;;;;;14.40;10.90;;;;;;;17.69;91.20;100466.67;108957;278;39774;-74
2023/09/11 05:25:12;;;;;;;17.50;10.90;;;;;;;18.41;92.35;100469.06;108902;278;38758;-74
2023/09/11 05:27:59;;;;;;;12.90;10.00;;;;;;;19.12;90.12;100470.98;108889;278;38470;-74
2023/09/11 05:30:33;;;;;;;14.40;9.90;;;;;;;19.33;86.76;100474.24;108899;278;39625;-72
2023/09/11 05:33:07;;;;;;;12.60;9.80;;;;;;;19.46;85.05;100474.02;108954;278;38584;-72
2023/09/11 05:35:41;;;;;;;15.70;10.80;;;;;;;19.48;83.88;100470.79;108879;278;39159;-72
2023/09/11 05:38:16;;;;;;;13.90;10.80;;;;;;;19.41;83.33;100473.45;108985;278;38914;-72
2023/09/11 05:40:51;;;;;;;14.70;10.60;;;;;;;19.35;82.84;100477.10;108949;278;39348;-74
2023/09/11 05:43:27;;;;;;;12.90;10.40;;;;;;;19.31;82.70;100474.04;108930;278;39113;-71
2023/09/11 05:46:01;;;;;;;16.70;10.60;;;;;;;19.29;82.75;100473.96;108920;278;38292;-70
2023/09/11 05:48:36;;;;;;;13.90;10.50;;;;;;;19.31;82.81;100473.98;108917;278;38203;-74
2023/09/11 05:51:10;;;;;;;17.40;10.30;;;;;;;19.35;82.88;100474.61;108888;278;39340;-74
2023/09/11 05:53:45;;;;;;;15.20;10.80;;;;;;;19.60;83.87;100475.42;108926;278;38154;-72
2023/09/11 05:56:21;;;;;;;15.80;10.20;;;;;;;20.48;86.79;100467.86;108921;278;39809;-74
2023/09/11 05:58:55;;;;;;;14.50;10.10;;;;;;;21.53;86.12;100465.52;108877;278;39948;-74
2023/09/11 06:01:38;;;;;;;14.20;10.50;;;;;;;22.61;82.94;100465.83;108935;278;39667;-74
2023/09/11 06:04:12;;;;;;;14.40;9.40;;;;;;;23.55;77.74;100470.20;108886;278;39657;-74
2023/09/11 06:06:47;;;;;;;12.40;9.60;;;;;;;24.26;73.95;100463.80;108883;278;38322;-72
2023/09/11 06:09:22;;;;;;;13.30;8.70;;;;;;;24.84;69.31;100466.08;108889;278;38217;-74
2023/09/11 06:11:56;;;;;;;11.30;9.20;;;;;;;25.31;66.36;100463.84;108916;278;38293;-72
2023/09/11 06:14:43;;;;;;;17.80;9.30;;;;;;;25.55;64.76;100462.43;108942;278;38471;-75
2023/09/11 06:17:18;;;;;;;13.60;9.90;;;;;;;25.40;63.39;100461.68;108951;278;39187;-74
2023/09/11 06:20:06;;;;;;;15.80;10.00;;;;;;;25.17;62.60;100466.01;108925;278;38751;-73
2023/09/11 06:22:50;;;;;;;15.90;9.70;;;;;;;24.83;62.27;100464.11;108919;278;38694;-75
2023/09/11 06:25:24;;;;;;;14.50;9.70;;;;;;;24.51;62.75;100464.29;108875;278;38343;-74
2023/09/11 06:28:07;;;;;;;14.20;9.60;;;;;;;24.19;63.31;100463.15;108933;278;38168;-75
2023/09/11 06:30:42;;;;;;;15.90;10.20;;;;;;;23.92;63.66;100463.41;108885;278;38336;-71
2023/09/11 06:33:22;;;;;;;15.60;9.90;;;;;;;23.69;64.37;100461.54;108914;278;39415;-73
2023/09/11 06:35:56;;;;;;;14.80;9.60;;;;;;;23.52;64.75;100464.31;108943;278;39646;-73
2023/09/11 06:38:30;;;;;;;13.70;9.50;;;;;;;23.38;64.98;100462.61;108935;278;38727;-73
2023/09/11 06:41:04;;;;;;;15.90;10.30;;;;;;;23.25;65.17;100463.96;108937;278;38380;-76
2023/09/11 06:43:38;;;;;;;16.10;11.10;;;;;;;23.16;65.32;100463.15;108948;278;38193;-72
2023/09/11 06:46:12;;;;;;;16.50;10.40;;;;;;;23.09;65.49;100461.83;108971;278;39268;-74
2023/09/11 06:48:46;;;;;;;14.30;10.70;;;;;;;23.01;65.80;100467.14;108843;278;174237;-73
2023/09/11 06:51:20;;;;;;;17.20;11.30;;;;;;;22.98;66.10;100466.02;108919;278;38449;-75
2023/09/11 06:53:54;;;;;;;15.50;10.90;;;;;;;22.96;66.33;100467.63;108906;278;38266;-73
2023/09/11 06:56:28;;;;;;;13.20;10.00;;;;;;;22.94;66.22;100468.52;108330;278;687699;-75
2023/09/11 06:59:02;;;;;;;15.20;10.40;;;;;;;22.95;66.79;100465.04;108903;278;38860;-73
2023/09/11 07:01:50;;;;;;;16.10;9.30;;;;;;;22.97;67.35;100465.20;108851;278;38236;-75
2023/09/11 07:04:24;;;;;;;12.70;9.30;;;;;;;23.00;66.97;100463.51;108945;278;38393;-73
2023/09/11 07:07:03;;;;;;;14.40;9.30;;;;;;;23.03;66.57;100460.95;108903;278;38602;-75
2023/09/11 07:09:39;;;;;;;15.00;10.00;;;;;;;23.08;66.40;100466.17;108942;278;38453;-72
2023/09/11 07:12:17;;;;;;;16.30;9.80;;;;;;;23.12;66.37;100463.36;108958;278;38470;-75
2023/09/11 07:14:55;;;;;;;16.20;10.00;;;;;;;23.17;66.03;100470.16;108906;278;38604;-76
2023/09/11 07:17:29;;;;;;;13.50;9.50;;;;;;;23.20;65.78;100466.20;108969;278;38923;-73
2023/09/11 07:20:05;;;;;;;15.50;9.60;;;;;;;23.22;65.45;100464.95;108894;278;38931;-72
2023/09/11 07:22:52;;;;;;;15.10;9.90;;;;;;;23.25;65.54;100462.69;108912;278;39554;-75
2023/09/11 07:25:40;;;;;;;14.40;9.60;;;;;;;23.33;65.38;100462.55;108892;278;38248;-72
2023/09/11 07:28:17;;;;;;;14.60;9.60;;;;;;;23.37;64.89;100464.27;108898;278;38307;-75
2023/09/11 07:30:54;;;;;;;16.30;10.10;;;;;;;23.39;64.40;100464.50;108966;278;38242;-73
2023/09/11 07:33:29;;;;;;;15.90;10.00;;;;;;;23.40;64.53;100463.69;108960;278;38773;-75
2023/09/11 07:36:07;;;;;;;18.30;9.50;;;;;;;23.47;64.57;100463.02;108900;278;38490;-75
2023/09/11 07:38:46;;;;;;;17.80;9.90;;;;;;;23.49;63.75;100461.30;108955;278;38509;-76
2023/09/11 07:41:23;;;;;;;16.50;10.60;;;;;;;23.50;64.04;100456.67;108888;278;38182;-75
2023/09/11 07:43:58;;;;;;;16.00;9.20;;;;;;;23.50;63.45;100455.45;108943;278;38760;-75
2023/09/11 07:46:40;;;;;;;16.10;10.00;;;;;;;23.52;63.86;100449.55;108782;278;174712;-73
2023/09/11 07:49:14;;;;;;;12.00;9.30;;;;;;;23.58;64.31;100448.48;108974;278;39351;-74
2023/09/11 07:51:55;;;;;;;15.00;9.60;;;;;;;23.71;64.93;100448.95;108928;278;39333;-72
2023/09/11 07:54:34;;;;;;;10.00;9.00;;;;;;;23.90;66.52;100444.45;108933;278;38496;-76
2023/09/11 07:57:14;;;;;;;11.90;8.60;;;;;;;24.33;67.11;100444.81;108920;278;38434;-75
2023/09/11 07:59:48;;;;;;;14.40;8.70;;;;;;;25.03;67.46;100445.21;108905;278;38186;-73
2023/09/11 08:02:22;;;;;;;14.80;9.00;;;;;;;26.00;65.30;100443.88;108929;278;39065;-75
2023/09/11 08:04:56;;;;;;;19.50;9.10;;;;;;;26.99;61.97;100444.59;108879;278;38616;-75
2023/09/11 08:07:35;;;;;;;14.00;7.90;;;;;;;28.01;58.49;100445.39;108970;278;38453;-74
2023/09/11 08:10:10;;;;;;;13.20;8.50;;;;;;;29.01;55.74;100442.80;108940;278;38624;-76
2023/09/11 08:12:44;;;;;;;10.40;7.80;;;;;;;29.95;53.10;100439.22;108948;278;38504;-76
2023/09/11 08:15:18;;;;;;;12.20;8.00;;;;;;;30.82;50.19;100435.00;108898;278;38184;-74
2023/09/11 08:17:52;;;;;;;10.70;7.70;;;;;;;31.38;46.77;100438.52;108902;278;38350;-74
2023/09/11 08:20:30;;;;;;;12.70;7.70;;;;;;;31.91;45.80;100437.17;108887;278;38495;-81
2023/09/11 08:23:06;;;;;;;9.10;7.10;;;;;;;32.66;44.20;100434.16;108966;278;39335;-76
2023/09/11 08:25:40;;;;;;;11.70;7.20;;;;;;;33.30;42.20;100431.50;108925;278;39365;-76
2023/09/11 08:28:14;;;;;;;10.10;6.90;;;;;;;33.83;40.45;100429.52;108986;278;38341;-76
2023/09/11 08:30:50;;;;;;;12.30;7.40;;;;;;;33.97;39.26;100430.20;108931;278;39632;-74
2023/09/11 08:33:27;;;;;;;9.00;7.00;;;;;;;34.06;39.55;100431.53;108912;279;38441;-76
2023/09/11 08:36:00;;;;;;;12.60;7.90;;;;;;;34.08;38.81;100426.64;108864;279;38366;-75
2023/09/11 08:38:35;;;;;;;9.10;6.40;;;;;;;33.78;38.08;100429.09;108934;279;39645;-74
2023/09/11 08:41:24;;;;;;;8.70;7.20;;;;;;;33.68;39.37;100430.13;108901;279;38287;-74
2023/09/11 08:44:01;;;;;;;10.90;7.40;;;;;;;33.86;38.85;100428.70;108980;279;38274;-75
2023/09/11 08:46:50;;;;;;;13.90;7.00;;;;;;;34.15;38.23;100431.94;108783;279;174020;-73
2023/09/11 08:49:35;;;;;;;10.40;7.00;;;;;;;34.49;37.75;100429.30;108941;278;38963;-76
2023/09/11 08:52:16;;;;;;;9.80;7.30;;;;;;;34.92;36.52;100428.86;108877;278;38469;-76
2023/09/11 08:54:54;;;;;;;11.50;7.40;;;;;;;35.12;35.97;100429.70;108896;278;38156;-76
2023/09/11 08:57:29;;;;;;;8.40;6.90;;;;;;;35.47;36.59;100430.30;108899;278;38737;-76
2023/09/11 09:00:09;;;;;;;11.80;7.70;;;;;;;35.73;35.48;100429.91;108929;278;38176;-76
2023/09/11 09:02:43;;;;;;;9.30;7.00;;;;;;;35.84;35.57;100431.06;108862;278;38336;-76
2023/09/11 09:05:17;;;;;;;8.70;7.80;;;;;;;35.81;35.19;100430.63;108893;278;38445;-75
2023/09/11 09:07:54;;;;;;;7.80;7.00;;;;;;;35.62;34.99;100429.95;108932;278;39724;-75
2023/09/11 09:10:39;;;;;;;9.30;7.40;;;;;;;35.32;34.61;100423.82;108920;278;38826;-76
2023/09/11 09:13:17;;;;;;;13.90;7.60;;;;;;;35.13;34.99;100422.30;108864;278;38651;-74
2023/09/11 09:15:52;;;;;;;9.50;7.40;;;;;;;34.90;34.92;100420.85;108906;278;38167;-75
2023/09/11 09:18:26;;;;;;;12.80;7.70;;;;;;;34.73;35.19;100421.79;108888;278;38169;-74
2023/09/11 09:21:00;;;;;;;9.70;7.10;;;;;;;34.74;35.43;100419.48;108879;278;38491;-75
2023/09/11 09:23:39;;;;;;;8.80;6.40;;;;;;;34.74;34.94;100415.73;108954;278;38354;-76
2023/09/11 09:26:14;;;;;;;11.20;7.10;;;;;;;34.91;35.68;100417.73;108937;278;38879;-76
2023/09/11 09:28:51;;;;;;;8.50;6.80;;;;;;;35.20;34.98;100414.42;108942;278;38656;-75
2023/09/11 09:31:28;;;;;;;11.10;6.90;;;;;;;35.51;34.88;100418.30;108881;278;38343;-76
2023/09/11 09:34:03;;;;;;;9.20;6.70;;;;;;;35.77;33.68;100418.02;108896;278;38404;-76
2023/09/11 09:36:42;;;;;;;10.30;6.80;;;;;;;36.00;33.18;100413.02;108876;278;38453;-77
2023/09/11 09:39:20;;;;;;;9.20;6.90;;;;;;;36.15;33.05;100410.40;108956;278;39192;-76
2023/09/11 09:41:57;;;;;;;12.30;6.90;;;;;;;36.11;32.51;100404.76;108920;278;38277;-76
2023/09/11 09:44:35;;;;;;;9.70;7.00;;;;;;;35.86;32.21;100407.70;108915;278;38726;-74
2023/09/11 09:47:13;;;;;;;9.40;7.00;;;;;;;35.41;32.79;100404.46;108917;278;39494;-75
2023/09/11 09:49:50;;;;;;;8.30;7.10;;;;;;;35.07;33.28;100400.52;108920;278;38158;-76
2023/09/11 09:52:27;;;;;;;7.60;6.30;;;;;;;34.72;33.17;100395.64;108948;278;38117;-74
2023/09/11 09:55:02;;;;;;;9.10;6.40;;;;;;;34.31;34.35;100397.19;108977;278;38440;-75
2023/09/11 09:57:36;;;;;;;9.40;6.80;;;;;;;33.95;34.61;100395.64;108956;278;38819;-75
2023/09/11 10:00:13;;;;;;;7.60;6.80;;;;;;;33.54;35.01;100391.29;108919;278;38230;-75
2023/09/11 10:02:47;;;;;;;11.40;6.40;;;;;;;33.14;35.17;100395.13;108919;278;38496;-75
2023/09/11 10:05:23;;;;;;;9.50;6.70;;;;;;;32.78;35.88;100390.87;108842;278;39517;-74
2023/09/11 10:07:57;;;;;;;10.50;6.80;;;;;;;32.50;36.37;100389.69;108916;278;38471;-76
2023/09/11 10:10:33;;;;;;;10.20;6.70;;;;;;;32.27;36.55;100385.85;108876;278;38239;-76
2023/09/11 10:13:10;;;;;;;8.50;7.00;;;;;;;32.02;36.91;100387.26;108887;278;38598;-75
2023/09/11 10:15:45;;;;;;;8.40;6.40;;;;;;;31.83;38.11;100386.23;108922;278;38162;-75
2023/09/11 10:18:19;;;;;;;12.20;7.30;;;;;;;31.77;38.41;100383.21;108868;278;38569;-76
2023/09/11 10:20:53;;;;;;;9.90;7.10;;;;;;;31.71;38.38;100383.33;108899;278;38170;-76
2023/09/11 10:23:27;;;;;;;12.10;7.10;;;;;;;31.57;38.47;100381.88;108931;278;39948;-76
2023/09/11 10:26:05;;;;;;;9.20;6.90;;;;;;;31.41;38.87;100381.23;108879;278;38442;-76
2023/09/11 10:28:41;;;;;;;8.10;7.20;;;;;;;31.29;39.10;100378.45;108922;278;38687;-80
2023/09/11 10:31:18;;;;;;;11.30;7.10;;;;;;;31.25;39.03;100373.65;108867;278;39025;-80
2023/09/11 10:33:55;;;;;;;11.70;7.00;;;;;;;31.21;39.02;100373.52;108881;278;38232;-74
2023/09/11 10:36:34;;;;;;;7.70;6.70;;;;;;;31.16;38.39;100369.19;108869;278;39295;-75
2023/09/11 10:39:08;;;;;;;7.60;6.90;;;;;;;31.03;38.47;100369.80;108937;278;38168;-75
2023/09/11 10:41:42;;;;;;;8.40;6.50;;;;;;;30.94;37.99;100365.42;108865;278;38382;-75
2023/09/11 10:44:16;;;;;;;8.70;6.70;;;;;;;30.88;38.69;100361.48;108904;278;39415;-75
2023/09/11 10:46:53;;;;;;;9.10;6.40;;;;;;;30.83;38.70;100361.14;108899;278;38313;-75
2023/09/11 10:49:28;;;;;;;7.50;6.40;;;;;;;30.78;38.75;100358.38;108855;278;39498;-76
2023/09/11 10:52:02;;;;;;;7.70;6.30;;;;;;;30.69;37.91;100358.55;108896;278;38476;-76
2023/09/11 10:54:36;;;;;;;6.80;6.00;;;;;;;30.61;38.64;100354.31;108868;278;38575;-73
2023/09/11 10:57:11;;;;;;;6.90;6.30;;;;;;;30.56;38.96;100354.54;108944;278;38802;-75
2023/09/11 10:59:45;;;;;;;7.40;6.70;;;;;;;30.50;39.24;100350.86;108869;278;38672;-76
2023/09/11 11:02:23;;;;;;;8.70;6.80;;;;;;;30.41;39.12;100349.12;108885;278;38335;-76
2023/09/11 11:04:57;;;;;;;8.10;6.40;;;;;;;30.32;39.13;100346.73;108917;278;38519;-75
2023/09/11 11:07:30;;;;;;;6.90;6.00;;;;;;;30.28;38.60;100347.38;108906;278;38660;-76
2023/09/11 11:10:11;;;;;;;6.80;5.90;;;;;;;30.23;38.59;100345.70;108865;278;38970;-75
2023/09/11 11:12:45;;;;;;;8.00;6.30;;;;;;;30.22;39.22;100348.50;108938;278;38762;-75
2023/09/11 11:15:26;;;;;;;7.30;6.50;;;;;;;30.22;39.18;100341.06;108897;278;39055;-75
2023/09/11 11:18:14;;;;;;;7.20;6.50;;;;;;;30.21;39.23;100343.23;108900;278;39799;-75
2023/09/11 11:21:08;;;;;;;8.60;6.80;;;;;;;30.17;39.08;100345.31;108866;278;38217;-76
2023/09/11 11:23:56;;;;;;;7.50;6.90;;;;;;;30.13;39.62;100345.25;108921;278;38439;-75
2023/09/11 11:26:33;;;;;;;7.70;6.90;;;;;;;30.11;39.12;100341.17;108902;278;38294;-75
2023/09/11 11:29:07;;;;;;;7.60;6.50;;;;;;;30.12;39.73;100344.71;108893;278;38282;-76
2023/09/11 11:31:41;;;;;;;7.00;6.30;;;;;;;30.10;39.42;100340.00;108904;278;38721;-80
2023/09/11 11:34:16;;;;;;;8.60;7.10;;;;;;;30.08;39.59;100337.39;108814;278;174587;-75
2023/09/11 11:36:50;;;;;;;8.70;6.40;;;;;;;30.03;38.18;100337.31;108896;278;38764;-75
2023/09/11 11:39:25;;;;;;;7.70;6.70;;;;;;;29.96;38.90;100332.94;108961;278;39496;-76
2023/09/11 11:42:00;;;;;;;7.70;6.90;;;;;;;29.93;39.01;100331.45;108948;278;38743;-75
2023/09/11 11:44:35;;;;;;;7.50;6.40;;;;;;;29.91;39.25;100332.41;108920;278;38197;-75
2023/09/11 11:47:10;;;;;;;9.00;6.40;;;;;;;29.90;39.14;100332.06;108908;278;38379;-75
2023/09/11 11:49:44;;;;;;;7.70;6.90;;;;;;;29.88;39.35;100329.45;108957;278;38261;-74
2023/09/11 11:52:18;;;;;;;8.50;7.10;;;;;;;29.85;39.08;100330.73;108897;278;39153;-75
2023/09/11 11:54:52;;;;;;;8.40;6.50;;;;;;;29.81;39.05;100327.36;108905;278;39786;-75
2023/09/11 11:57:26;;;;;;;7.90;7.10;;;;;;;29.77;38.41;100327.22;108904;278;38579;-75
2023/09/11 12:00:00;;;;;;;7.50;6.90;;;;;;;29.71;38.49;100324.43;108783;278;171709;-74
2023/09/11 12:02:34;;;;;;;7.10;6.40;;;;;;;29.63;38.22;100326.05;108908;278;38772;-75